Time;durP1;ratioP1;P1;durP2;ratioP2;P2;SDS_P1;SDS_P2;PMS_P1;PMS_P2;Temp;Humidity;BMP_temperature;BMP_pressure;BME280_temperature;BME280_humidity;BME280_pressure;Samples;Min_cycle;Max_cycle;Signal;HPM_P1;HPM_P2
2021/04/17 00:01:22;;;;;;;;;;;8.70;87.80;;;;;;5019704;28;89228;-63
2021/04/17 00:03:48;;;;;;;;;;;8.70;87.80;;;;;;5020110;28;87114;-63
2021/04/17 00:06:13;;;;;;;;;;;8.60;87.80;;;;;;5019320;28;87989;-63
2021/04/17 00:08:39;;;;;;;;;;;8.60;87.80;;;;;;5020482;28;89663;-63
2021/04/17 00:11:05;;;;;;;;;;;8.60;87.80;;;;;;5024199;28;87145;-63
2021/04/17 00:13:31;;;;;;;;;;;8.60;87.80;;;;;;5022058;28;88765;-63
2021/04/17 00:15:56;;;;;;;;;;;8.70;87.70;;;;;;5023950;28;87719;-63
2021/04/17 00:18:22;;;;;;;;;;;8.60;87.80;;;;;;5020469;28;87295;-63
2021/04/17 00:20:48;;;;;;;;;;;8.60;87.80;;;;;;5019304;28;88711;-62
2021/04/17 00:23:15;;;;;;;;;;;8.60;87.80;;;;;;5021958;28;88897;-63
2021/04/17 00:25:41;;;;;;;;;;;8.60;87.90;;;;;;5023162;28;87130;-63
2021/04/17 00:28:06;;;;;;;;;;;8.60;87.80;;;;;;5021670;28;88548;-63
2021/04/17 00:30:32;;;;;;;;;;;8.60;87.70;;;;;;5022356;28;87125;-63
2021/04/17 00:32:57;;;;;;;;;;;8.60;87.80;;;;;;5020811;28;88109;-63
2021/04/17 00:35:23;;;;;;;;;;;8.60;87.70;;;;;;5020471;28;88296;-63
2021/04/17 00:37:48;;;;;;;;;;;8.60;87.90;;;;;;5022732;28;87138;-63
2021/04/17 00:40:14;;;;;;;;;;;8.60;87.80;;;;;;5018897;28;87313;-62
2021/04/17 00:42:39;;;;;;;;;;;8.60;87.80;;;;;;5018257;28;88751;-63
2021/04/17 00:45:06;;;;;;;;;;;8.60;87.80;;;;;;5017609;28;90871;-63
2021/04/17 00:47:32;;;;;;;;;;;8.60;87.80;;;;;;5017880;28;87107;-63
2021/04/17 00:49:57;;;;;;;;;;;8.60;87.70;;;;;;5020387;28;86397;-63
2021/04/17 00:52:23;;;;;;;;;;;8.60;87.80;;;;;;5018675;28;87163;-63
2021/04/17 00:54:48;;;;;;;;;;;8.60;87.80;;;;;;5019383;28;87647;-63
2021/04/17 00:57:14;;;;;;;;;;;8.60;87.80;;;;;;5020393;28;88158;-63
2021/04/17 00:59:40;;;;;;;;;;;8.60;87.80;;;;;;5022160;28;87863;-63
2021/04/17 01:02:05;;;;;;;;;;;8.60;87.90;;;;;;5022183;28;87235;-63
2021/04/17 01:04:42;;;;;;;;;;;8.60;87.90;;;;;;5022821;28;88556;-63
2021/04/17 01:07:13;;;;;;;;;;;8.60;87.80;;;;;;5022696;28;88099;-63
2021/04/17 01:09:50;;;;;;;;;;;8.60;87.70;;;;;;5023037;28;87149;-63
2021/04/17 01:12:20;;;;;;;;;;;8.60;87.70;;;;;;5021814;28;88016;-63
2021/04/17 01:14:47;;;;;;;;;;;8.60;87.70;;;;;;5021938;28;87059;-63
2021/04/17 01:17:13;;;;;;;;;;;8.60;87.70;;;;;;5018745;28;87216;-63
2021/04/17 01:19:39;;;;;;;;;;;8.60;87.60;;;;;;5019900;28;87528;-63
2021/04/17 01:22:06;;;;;;;;;;;8.60;87.60;;;;;;5021788;28;89765;-63
2021/04/17 01:24:33;;;;;;;;;;;8.60;87.80;;;;;;5021312;28;88292;-63
2021/04/17 01:26:59;;;;;;;;;;;8.60;87.60;;;;;;5018144;28;89148;-63
2021/04/17 01:29:25;;;;;;;;;;;8.50;87.70;;;;;;5018428;28;87139;-63
2021/04/17 01:31:51;;;;;;;;;;;8.50;87.70;;;;;;5018626;28;88855;-63
2021/04/17 01:34:17;;;;;;;;;;;8.50;87.70;;;;;;5017962;28;87345;-63
2021/04/17 01:36:43;;;;;;;;;;;8.50;87.70;;;;;;5020653;28;88917;-63
2021/04/17 01:39:10;;;;;;;;;;;8.50;87.60;;;;;;5023003;28;87481;-63
2021/04/17 01:41:39;;;;;;;;;;;8.50;87.60;;;;;;5020109;28;87838;-63
2021/04/17 01:44:08;;;;;;;;;;;8.50;87.60;;;;;;5024831;28;87142;-63
2021/04/17 01:46:35;;;;;;;;;;;8.50;87.50;;;;;;5018838;28;89248;-63
2021/04/17 01:49:03;;;;;;;;;;;8.50;87.40;;;;;;5020877;28;87217;-63
2021/04/17 01:51:30;;;;;;;;;;;8.50;87.40;;;;;;5017506;28;87374;-63
2021/04/17 01:53:58;;;;;;;;;;;8.50;87.50;;;;;;5020571;28;88113;-63
2021/04/17 01:56:24;;;;;;;;;;;8.50;87.60;;;;;;5020597;28;87230;-63
2021/04/17 01:58:50;;;;;;;;;;;8.50;87.60;;;;;;5020011;28;87655;-63
2021/04/17 02:01:20;;;;;;;;;;;8.50;87.70;;;;;;5020165;28;88103;-63
2021/04/17 02:03:45;;;;;;;;;;;8.50;87.70;;;;;;5024280;28;87002;-63
2021/04/17 02:06:11;;;;;;;;;;;8.50;87.50;;;;;;5017108;28;89243;-63
2021/04/17 02:08:37;;;;;;;;;;;8.50;87.70;;;;;;5017205;28;87710;-63
2021/04/17 02:11:03;;;;;;;;;;;8.40;87.50;;;;;;5020973;28;89917;-63
2021/04/17 02:13:29;;;;;;;;;;;8.50;87.60;;;;;;5020092;28;89269;-63
2021/04/17 02:15:57;;;;;;;;;;;8.50;87.60;;;;;;5021858;28;87272;-63
2021/04/17 02:18:33;;;;;;;;;;;8.40;87.50;;;;;;5018111;28;87128;-63
2021/04/17 02:21:04;;;;;;;;;;;8.40;87.50;;;;;;5016987;28;88999;-63
2021/04/17 02:23:30;;;;;;;;;;;8.40;87.60;;;;;;5018298;28;87880;-63
2021/04/17 02:25:57;;;;;;;;;;;8.40;87.50;;;;;;5024542;28;88071;-63
2021/04/17 02:28:23;;;;;;;;;;;8.40;87.50;;;;;;5021067;28;86431;-63
2021/04/17 02:30:48;;;;;;;;;;;8.40;87.60;;;;;;5020583;28;87177;-63
2021/04/17 02:33:14;;;;;;;;;;;8.40;87.60;;;;;;5020483;28;87661;-63
2021/04/17 02:35:40;;;;;;;;;;;8.40;87.60;;;;;;5017718;28;88088;-63
2021/04/17 02:38:05;;;;;;;;;;;8.40;87.60;;;;;;5018273;28;87991;-63
2021/04/17 02:40:31;;;;;;;;;;;8.40;87.60;;;;;;5018771;28;88238;-63
2021/04/17 02:42:56;;;;;;;;;;;8.40;87.60;;;;;;5019271;28;87197;-63
2021/04/17 02:45:22;;;;;;;;;;;8.40;87.70;;;;;;5019977;28;88154;-63
2021/04/17 02:47:47;;;;;;;;;;;8.40;87.70;;;;;;5021712;28;88614;-63
2021/04/17 02:50:13;;;;;;;;;;;8.40;88.20;;;;;;5018352;28;87165;-63
2021/04/17 02:52:39;;;;;;;;;;;8.40;87.60;;;;;;5019628;28;87535;-63
2021/04/17 02:55:04;;;;;;;;;;;8.40;87.60;;;;;;5019386;28;87151;-63
2021/04/17 02:57:30;;;;;;;;;;;8.40;87.70;;;;;;5019916;28;88619;-63
2021/04/17 02:59:55;;;;;;;;;;;8.30;87.60;;;;;;5015209;28;91013;-63
2021/04/17 03:02:21;;;;;;;;;;;8.40;87.60;;;;;;5017602;28;88649;-63
2021/04/17 03:04:47;;;;;;;;;;;8.40;87.60;;;;;;5017877;28;89101;-63
2021/04/17 03:07:13;;;;;;;;;;;8.30;87.50;;;;;;5017479;28;88119;-63
2021/04/17 03:09:39;;;;;;;;;;;8.30;87.40;;;;;;5020071;28;88044;-63
2021/04/17 03:12:05;;;;;;;;;;;8.40;87.40;;;;;;5019290;28;87837;-63
2021/04/17 03:14:30;;;;;;;;;;;8.30;87.40;;;;;;5018787;28;87197;-63
2021/04/17 03:16:56;;;;;;;;;;;8.30;87.50;;;;;;5018474;28;86975;-63
2021/04/17 03:19:21;;;;;;;;;;;8.30;87.40;;;;;;5018512;28;88163;-63
2021/04/17 03:21:47;;;;;;;;;;;8.30;87.50;;;;;;5018221;28;87126;-63
2021/04/17 03:24:12;;;;;;;;;;;8.30;87.40;;;;;;5016126;28;88091;-63
2021/04/17 03:26:38;;;;;;;;;;;8.30;87.30;;;;;;5016359;28;88367;-63
2021/04/17 03:29:03;;;;;;;;;;;8.30;87.40;;;;;;5015939;28;87135;-63
2021/04/17 03:31:29;;;;;;;;;;;8.30;87.50;;;;;;5020145;28;89041;-63
2021/04/17 03:33:54;;;;;;;;;;;8.30;87.50;;;;;;5019405;28;88459;-63
2021/04/17 03:36:20;;;;;;;;;;;8.30;87.50;;;;;;5016190;28;87719;-63
2021/04/17 03:38:45;;;;;;;;;;;8.30;87.50;;;;;;5016117;28;87604;-63
2021/04/17 03:41:11;;;;;;;;;;;8.30;87.40;;;;;;5019062;28;86480;-63
2021/04/17 03:43:37;;;;;;;;;;;8.30;87.50;;;;;;5018199;28;87180;-63
2021/04/17 03:46:03;;;;;;;;;;;8.20;87.50;;;;;;5018920;28;89018;-63
2021/04/17 03:48:28;;;;;;;;;;;8.30;87.50;;;;;;5018013;28;88151;-63
2021/04/17 03:50:54;;;;;;;;;;;8.30;87.60;;;;;;5021741;28;88365;-63
2021/04/17 03:53:19;;;;;;;;;;;8.20;87.40;;;;;;5019101;28;87139;-63
2021/04/17 03:55:45;;;;;;;;;;;8.30;87.50;;;;;;5018369;28;88488;-63
2021/04/17 03:58:10;;;;;;;;;;;8.20;88.00;;;;;;5020214;28;88032;-63
2021/04/17 04:00:36;;;;;;;;;;;8.20;87.50;;;;;;5019480;28;87957;-63
2021/04/17 04:03:02;;;;;;;;;;;8.20;87.50;;;;;;5015331;28;88516;-63
2021/04/17 04:05:27;;;;;;;;;;;8.20;87.40;;;;;;5019827;28;88275;-63
2021/04/17 04:07:53;;;;;;;;;;;8.20;87.40;;;;;;5020158;28;87295;-63
2021/04/17 04:10:18;;;;;;;;;;;8.20;87.60;;;;;;5020292;28;88701;-63
2021/04/17 04:12:44;;;;;;;;;;;8.20;87.50;;;;;;5021055;28;88829;-63
2021/04/17 04:15:11;;;;;;;;;;;8.20;87.40;;;;;;5017171;28;88779;-63
2021/04/17 04:17:37;;;;;;;;;;;8.20;87.40;;;;;;5019234;28;87595;-63
2021/04/17 04:20:04;;;;;;;;;;;8.10;87.40;;;;;;5019093;28;87196;-63
2021/04/17 04:22:29;;;;;;;;;;;8.20;87.50;;;;;;5017972;28;89155;-63
2021/04/17 04:24:55;;;;;;;;;;;8.20;87.50;;;;;;5017738;28;89149;-63
2021/04/17 04:27:20;;;;;;;;;;;8.20;87.50;;;;;;5019364;28;88759;-63
2021/04/17 04:29:46;;;;;;;;;;;8.20;87.40;;;;;;5020563;28;87509;-63
2021/04/17 04:32:11;;;;;;;;;;;8.20;87.50;;;;;;5019309;28;88755;-63
2021/04/17 04:34:37;;;;;;;;;;;8.10;87.40;;;;;;5020870;28;87226;-63
2021/04/17 04:37:02;;;;;;;;;;;8.20;87.40;;;;;;5019883;28;88531;-63
2021/04/17 04:39:28;;;;;;;;;;;8.10;87.40;;;;;;5021939;28;87235;-63
2021/04/17 04:41:53;;;;;;;;;;;8.10;87.40;;;;;;5021862;28;87165;-63
2021/04/17 04:44:19;;;;;;;;;;;8.10;87.30;;;;;;5020584;28;88102;-63
2021/04/17 04:46:44;;;;;;;;;;;8.10;87.40;;;;;;5020885;28;87151;-63
2021/04/17 04:49:10;;;;;;;;;;;8.10;87.30;;;;;;5021487;28;87269;-63
2021/04/17 04:51:36;;;;;;;;;;;8.10;87.50;;;;;;5021504;28;89085;-63
2021/04/17 04:54:01;;;;;;;;;;;8.10;87.40;;;;;;5019571;28;86407;-63
2021/04/17 04:56:27;;;;;;;;;;;8.10;87.30;;;;;;5021877;28;87159;-63
2021/04/17 04:58:52;;;;;;;;;;;8.10;87.40;;;;;;5020847;28;87145;-64
2021/04/17 05:01:18;;;;;;;;;;;8.10;87.40;;;;;;5019820;28;88125;-63
2021/04/17 05:03:43;;;;;;;;;;;8.10;87.40;;;;;;5020702;28;88095;-63
2021/04/17 05:06:09;;;;;;;;;;;8.10;87.30;;;;;;5020548;28;87145;-63
2021/04/17 05:08:34;;;;;;;;;;;8.10;87.50;;;;;;5022212;28;87360;-63
2021/04/17 05:11:00;;;;;;;;;;;8.10;87.40;;;;;;5022066;28;87723;-63
2021/04/17 05:13:25;;;;;;;;;;;8.10;88.00;;;;;;5021897;28;88818;-63
2021/04/17 05:15:51;;;;;;;;;;;8.10;87.40;;;;;;5022107;28;88794;-63
2021/04/17 05:18:16;;;;;;;;;;;8.10;87.50;;;;;;5025014;28;87398;-63
2021/04/17 05:20:42;;;;;;;;;;;8.10;87.50;;;;;;5022289;28;87202;-63
2021/04/17 05:23:07;;;;;;;;;;;8.10;87.50;;;;;;5022109;28;88592;-63
2021/04/17 05:25:33;;;;;;;;;;;8.00;87.50;;;;;;5021883;28;88098;-64
2021/04/17 05:27:58;;;;;;;;;;;8.10;87.40;;;;;;5022078;28;88407;-63
2021/04/17 05:30:24;;;;;;;;;;;8.10;87.50;;;;;;5019538;28;88267;-63
2021/04/17 05:32:50;;;;;;;;;;;8.00;87.30;;;;;;5020089;28;87106;-63
2021/04/17 05:35:15;;;;;;;;;;;8.00;87.50;;;;;;5019819;28;88770;-63
2021/04/17 05:37:41;;;;;;;;;;;8.00;87.40;;;;;;5019538;28;87135;-63
2021/04/17 05:40:07;;;;;;;;;;;8.00;87.40;;;;;;5024407;28;87859;-63
2021/04/17 05:42:33;;;;;;;;;;;8.00;87.30;;;;;;5019700;28;86941;-63
2021/04/17 05:44:58;;;;;;;;;;;8.00;87.50;;;;;;5019147;28;87147;-63
2021/04/17 05:47:24;;;;;;;;;;;8.00;87.50;;;;;;5019064;28;87343;-63
2021/04/17 05:49:49;;;;;;;;;;;8.00;87.50;;;;;;5020559;28;88519;-63
2021/04/17 05:52:15;;;;;;;;;;;8.00;87.50;;;;;;5021467;28;88073;-63
2021/04/17 05:54:40;;;;;;;;;;;8.00;87.50;;;;;;5021904;28;87418;-63
2021/04/17 05:57:06;;;;;;;;;;;8.00;87.50;;;;;;5019093;28;88123;-63
2021/04/17 05:59:31;;;;;;;;;;;8.00;87.40;;;;;;5020061;28;87329;-63
2021/04/17 06:01:57;;;;;;;;;;;8.00;87.40;;;;;;5017324;28;87715;-63
2021/04/17 06:04:23;;;;;;;;;;;8.00;87.50;;;;;;5018168;28;89056;-63
2021/04/17 06:06:48;;;;;;;;;;;8.00;87.50;;;;;;5019266;28;87539;-63
2021/04/17 06:09:14;;;;;;;;;;;7.90;87.40;;;;;;5017847;28;88177;-63
2021/04/17 06:11:40;;;;;;;;;;;8.00;87.50;;;;;;5017283;28;87159;-63
2021/04/17 06:14:05;;;;;;;;;;;7.90;87.50;;;;;;5020596;28;88498;-63
2021/04/17 06:16:31;;;;;;;;;;;7.90;87.50;;;;;;5021064;28;88122;-63
2021/04/17 06:18:56;;;;;;;;;;;7.90;87.50;;;;;;5019034;28;87677;-63
2021/04/17 06:21:22;;;;;;;;;;;7.90;87.40;;;;;;5021862;28;88151;-63
2021/04/17 06:23:47;;;;;;;;;;;7.90;87.40;;;;;;5022057;28;88285;-63
2021/04/17 06:26:13;;;;;;;;;;;7.90;87.40;;;;;;5021491;28;87189;-63
2021/04/17 06:28:38;;;;;;;;;;;7.90;87.40;;;;;;5020845;28;88139;-63
2021/04/17 06:31:04;;;;;;;;;;;7.90;87.50;;;;;;5018918;28;88136;-63
2021/04/17 06:33:30;;;;;;;;;;;7.90;87.50;;;;;;5020443;28;87200;-63
2021/04/17 06:35:55;;;;;;;;;;;7.90;87.50;;;;;;5020726;28;87149;-63
2021/04/17 06:38:21;;;;;;;;;;;7.90;87.50;;;;;;5019198;28;88163;-63
2021/04/17 06:40:49;;;;;;;;;;;7.90;87.60;;;;;;5016435;28;88449;-63
2021/04/17 06:43:15;;;;;;;;;;;7.90;87.50;;;;;;5023018;28;88349;-63
2021/04/17 06:45:40;;;;;;;;;;;7.90;87.60;;;;;;5018122;28;88967;-63
2021/04/17 06:48:07;;;;;;;;;;;7.90;87.50;;;;;;5016644;28;88128;-63
2021/04/17 06:50:33;;;;;;;;;;;7.90;87.40;;;;;;5017076;28;88326;-63
2021/04/17 06:53:00;;;;;;;;;;;7.90;87.50;;;;;;5016973;28;88442;-63
2021/04/17 06:55:25;;;;;;;;;;;7.90;87.60;;;;;;5020832;28;86909;-63
2021/04/17 06:57:51;;;;;;;;;;;7.90;87.50;;;;;;5018723;28;87221;-63
2021/04/17 07:00:19;;;;;;;;;;;7.90;87.50;;;;;;5019057;28;87512;-63
2021/04/17 07:02:45;;;;;;;;;;;7.90;87.50;;;;;;5016732;28;89270;-63
2021/04/17 07:05:10;;;;;;;;;;;7.90;87.50;;;;;;5022226;28;87174;-63
2021/04/17 07:07:36;;;;;;;;;;;7.90;87.50;;;;;;5018085;28;89257;-63
2021/04/17 07:10:02;;;;;;;;;;;7.90;87.70;;;;;;5018805;28;87211;-63
2021/04/17 07:12:28;;;;;;;;;;;7.90;87.60;;;;;;5016581;28;89585;-63
2021/04/17 07:14:54;;;;;;;;;;;7.90;87.60;;;;;;5016291;28;88954;-63
2021/04/17 07:17:20;;;;;;;;;;;7.80;87.60;;;;;;5019052;28;87135;-63
2021/04/17 07:19:51;;;;;;;;;;;7.90;87.70;;;;;;5018640;28;88760;-63
2021/04/17 07:22:21;;;;;;;;;;;7.80;87.70;;;;;;5017804;28;87141;-63
2021/04/17 07:24:47;;;;;;;;;;;7.80;87.70;;;;;;5018563;28;87133;-63
2021/04/17 07:27:31;;;;;;;;;;;7.80;87.70;;;;;;5021110;28;88164;-63
2021/04/17 07:29:58;;;;;;;;;;;7.80;87.70;;;;;;5016451;28;87203;-63
2021/04/17 07:32:24;;;;;;;;;;;7.80;87.70;;;;;;5018598;28;88367;-63
2021/04/17 07:35:05;;;;;;;;;;;7.80;87.70;;;;;;5016709;28;87598;-63
2021/04/17 07:37:31;;;;;;;;;;;7.80;87.70;;;;;;5015651;28;87129;-63
2021/04/17 07:40:13;;;;;;;;;;;7.80;87.80;;;;;;5018987;28;88438;-63
2021/04/17 07:42:39;;;;;;;;;;;7.80;87.80;;;;;;5018700;28;88257;-63
2021/04/17 07:45:17;;;;;;;;;;;7.80;87.70;;;;;;5019015;28;86449;-63
2021/04/17 07:47:42;;;;;;;;;;;7.80;87.80;;;;;;5017755;28;87138;-63
2021/04/17 07:50:08;;;;;;;;;;;7.80;87.80;;;;;;5020135;28;87659;-63
2021/04/17 07:52:34;;;;;;;;;;;7.80;88.30;;;;;;5017535;28;88123;-63
2021/04/17 07:55:00;;;;;;;;;;;7.80;87.70;;;;;;5018683;28;88398;-63
2021/04/17 07:57:32;;;;;;;;;;;7.80;87.80;;;;;;5016203;28;88639;-63
2021/04/17 07:59:58;;;;;;;;;;;7.80;87.80;;;;;;5018999;28;87137;-63
2021/04/17 08:02:24;;;;;;;;;;;7.80;88.40;;;;;;5020061;28;88613;-63
2021/04/17 08:04:50;;;;;;;;;;;7.80;87.80;;;;;;5018552;28;87139;-63
2021/04/17 08:07:17;;;;;;;;;;;7.80;87.80;;;;;;5020544;28;88228;-63
2021/04/17 08:09:43;;;;;;;;;;;7.80;87.80;;;;;;5024219;28;86995;-63
2021/04/17 08:12:09;;;;;;;;;;;7.80;87.80;;;;;;5021773;28;88125;-63
2021/04/17 08:14:35;;;;;;;;;;;7.80;87.70;;;;;;5020250;28;88169;-63
2021/04/17 08:17:00;;;;;;;;;;;7.80;87.80;;;;;;5019596;28;88104;-63
2021/04/17 08:19:26;;;;;;;;;;;7.80;87.90;;;;;;5019764;28;87531;-63
2021/04/17 08:21:52;;;;;;;;;;;7.80;87.90;;;;;;5019389;28;87666;-63
2021/04/17 08:24:28;;;;;;;;;;;7.80;87.90;;;;;;5021302;28;87166;-63
2021/04/17 08:26:55;;;;;;;;;;;7.80;87.90;;;;;;5020784;28;87200;-63
2021/04/17 08:29:39;;;;;;;;;;;7.80;87.90;;;;;;5021595;28;89458;-63
2021/04/17 08:32:04;;;;;;;;;;;7.80;87.80;;;;;;5025451;28;88689;-63
2021/04/17 08:34:30;;;;;;;;;;;7.80;87.90;;;;;;5021922;28;87548;-63
2021/04/17 08:37:03;;;;;;;;;;;7.80;87.90;;;;;;5021555;28;88064;-63
2021/04/17 08:39:34;;;;;;;;;;;7.80;87.90;;;;;;5023276;28;89008;-63
2021/04/17 08:42:04;;;;;;;;;;;7.80;87.90;;;;;;5021464;28;91029;-63
2021/04/17 08:44:33;;;;;;;;;;;7.80;88.00;;;;;;5020019;28;87104;-63
2021/04/17 08:47:03;;;;;;;;;;;7.80;88.00;;;;;;5023283;28;88761;-63
2021/04/17 08:49:29;;;;;;;;;;;7.80;88.00;;;;;;5019963;28;89437;-63
2021/04/17 08:52:04;;;;;;;;;;;7.80;88.00;;;;;;5018730;28;87216;-63
2021/04/17 08:54:30;;;;;;;;;;;7.80;88.00;;;;;;5022625;28;87898;-63
2021/04/17 08:56:59;;;;;;;;;;;7.80;88.00;;;;;;5022876;28;87566;-63
2021/04/17 08:59:32;;;;;;;;;;;7.80;88.10;;;;;;5021564;28;88368;-63
2021/04/17 09:02:00;;;;;;;;;;;7.80;88.00;;;;;;5021524;28;89035;-63
2021/04/17 09:04:26;;;;;;;;;;;7.80;88.00;;;;;;5020459;28;87110;-63
2021/04/17 09:06:53;;;;;;;;;;;7.80;88.10;;;;;;5019519;28;88719;-63
2021/04/17 09:09:19;;;;;;;;;;;7.80;88.10;;;;;;5019478;28;88175;-63
2021/04/17 09:11:46;;;;;;;;;;;7.80;88.10;;;;;;5020087;28;87177;-63
2021/04/17 09:14:27;;;;;;;;;;;7.80;88.10;;;;;;5018702;28;87307;-63
2021/04/17 09:16:53;;;;;;;;;;;7.80;88.10;;;;;;5023212;28;87584;-63
2021/04/17 09:19:38;;;;;;;;;;;7.80;88.10;;;;;;5021703;28;87164;-63
2021/04/17 09:22:22;;;;;;;;;;;7.80;88.20;;;;;;5018954;28;88896;-63
2021/04/17 09:24:47;;;;;;;;;;;7.80;88.20;;;;;;5019934;28;86396;-63
2021/04/17 09:27:23;;;;;;;;;;;7.80;88.30;;;;;;5020058;28;87126;-63
2021/04/17 09:29:55;;;;;;;;;;;7.80;88.20;;;;;;5019402;28;88009;-63
2021/04/17 09:32:20;;;;;;;;;;;7.80;88.20;;;;;;5017036;28;88782;-63
2021/04/17 09:34:46;;;;;;;;;;;7.80;88.10;;;;;;5018149;28;87696;-63
2021/04/17 09:37:11;;;;;;;;;;;7.80;88.20;;;;;;5018364;28;88124;-63
2021/04/17 09:39:43;;;;;;;;;;;7.80;88.20;;;;;;5024682;28;87163;-63
2021/04/17 09:42:10;;;;;;;;;;;7.80;88.20;;;;;;5020619;28;87291;-63
2021/04/17 09:44:43;;;;;;;;;;;7.80;88.30;;;;;;5019505;28;87146;-63
2021/04/17 09:47:09;;;;;;;;;;;7.80;88.20;;;;;;5019231;28;88527;-63
2021/04/17 09:49:39;;;;;;;;;;;7.80;88.20;;;;;;5018310;28;87191;-63
2021/04/17 09:52:06;;;;;;;;;;;7.80;88.20;;;;;;5018091;28;87222;-63
2021/04/17 09:54:31;;;;;;;;;;;7.80;88.40;;;;;;5020623;28;87977;-63
2021/04/17 09:56:57;;;;;;;;;;;7.80;88.40;;;;;;5020849;28;89130;-63
2021/04/17 09:59:23;;;;;;;;;;;7.80;88.40;;;;;;5020062;28;88661;-63
2021/04/17 10:01:55;;;;;;;;;;;7.80;88.40;;;;;;5019694;28;88926;-63
2021/04/17 10:04:21;;;;;;;;;;;7.80;88.40;;;;;;5022280;28;87216;-63
2021/04/17 10:06:56;;;;;;;;;;;7.80;88.40;;;;;;5021312;28;87897;-63
2021/04/17 10:09:22;;;;;;;;;;;7.80;88.50;;;;;;5018429;28;88084;-63
2021/04/17 10:11:48;;;;;;;;;;;7.80;88.40;;;;;;5021331;28;87156;-63
2021/04/17 10:14:14;;;;;;;;;;;7.80;88.40;;;;;;5020650;28;87434;-63
2021/04/17 10:16:44;;;;;;;;;;;7.70;88.40;;;;;;5019520;28;88827;-63
2021/04/17 10:19:16;;;;;;;;;;;7.80;88.50;;;;;;5021125;28;87174;-63
2021/04/17 10:21:45;;;;;;;;;;;7.80;88.50;;;;;;5020639;28;88116;-63
2021/04/17 10:24:17;;;;;;;;;;;7.80;88.40;;;;;;5020629;28;87271;-63
2021/04/17 10:27:04;;;;;;;;;;;7.80;88.50;;;;;;5021225;28;88532;-63
2021/04/17 10:29:32;;;;;;;;;;;7.80;88.50;;;;;;5019206;28;87213;-63
2021/04/17 10:32:02;;;;;;;;;;;7.80;88.50;;;;;;5018451;28;87271;-63
2021/04/17 10:34:28;;;;;;;;;;;7.80;88.70;;;;;;5020449;28;87183;-63
2021/04/17 10:37:05;;;;;;;;;;;7.80;88.70;;;;;;5018410;28;91576;-63
2021/04/17 10:39:30;;;;;;;;;;;7.80;88.60;;;;;;5021796;28;86590;-63
2021/04/17 10:41:57;;;;;;;;;;;7.80;88.60;;;;;;5020325;28;87634;-63
2021/04/17 10:44:23;;;;;;;;;;;7.80;88.70;;;;;;5022708;28;88104;-63
2021/04/17 10:46:49;;;;;;;;;;;7.80;88.70;;;;;;5020001;28;88074;-63
2021/04/17 10:49:44;;;;;;;;;;;7.80;88.60;;;;;;5018776;28;87333;-63
2021/04/17 10:52:32;;;;;;;;;;;7.80;88.70;;;;;;5011976;28;87167;-63
2021/04/17 10:54:57;;;;;;;;;;;7.80;88.70;;;;;;5018782;28;88830;-63
2021/04/17 10:57:23;;;;;;;;;;;7.80;88.50;;;;;;5018859;28;87693;-63
2021/04/17 11:00:04;;;;;;;;;;;7.80;88.60;;;;;;5019944;28;88738;-63
2021/04/17 11:02:32;;;;;;;;;;;7.80;88.60;;;;;;5020995;28;87583;-63
2021/04/17 11:04:58;;;;;;;;;;;7.80;88.60;;;;;;5019900;28;86720;-63
2021/04/17 11:07:29;;;;;;;;;;;7.80;88.60;;;;;;5020161;28;87970;-63
2021/04/17 11:09:55;;;;;;;;;;;7.80;88.60;;;;;;5019998;28;88864;-63
2021/04/17 11:12:25;;;;;;;;;;;7.80;88.60;;;;;;5020852;28;88193;-63
2021/04/17 11:14:50;;;;;;;;;;;7.80;88.70;;;;;;5017022;28;87939;-62
2021/04/17 11:17:18;;;;;;;;;;;7.80;88.60;;;;;;5016019;28;87874;-63
2021/04/17 11:19:44;;;;;;;;;;;7.90;88.60;;;;;;5019923;28;88396;-63
2021/04/17 11:22:14;;;;;;;;;;;7.90;88.70;;;;;;5019478;28;88401;-63
2021/04/17 11:25:04;;;;;;;;;;;7.80;88.60;;;;;;5016998;28;88984;-63
2021/04/17 11:27:33;;;;;;;;;;;7.80;88.60;;;;;;5019266;28;87151;-63
2021/04/17 11:29:59;;;;;;;;;;;7.90;88.70;;;;;;5019835;28;88972;-63
2021/04/17 11:32:27;;;;;;;;;;;7.90;88.70;;;;;;5016109;28;87121;-63
2021/04/17 11:34:53;;;;;;;;;;;7.90;88.70;;;;;;5019755;28;88829;-63
2021/04/17 11:37:19;;;;;;;;;;;7.90;88.60;;;;;;5016286;28;89702;-63
2021/04/17 11:39:44;;;;;;;;;;;7.90;88.50;;;;;;5016238;28;87167;-63
2021/04/17 11:42:11;;;;;;;;;;;7.90;88.50;;;;;;5018019;28;88476;-63
2021/04/17 11:44:40;;;;;;;;;;;7.90;88.60;;;;;;5016019;28;87136;-63
2021/04/17 11:47:05;;;;;;;;;;;7.90;88.70;;;;;;5018743;28;87172;-63
2021/04/17 11:49:31;;;;;;;;;;;7.90;89.20;;;;;;5018770;28;87905;-63
2021/04/17 11:51:56;;;;;;;;;;;7.90;88.70;;;;;;5021329;28;88670;-63
2021/04/17 11:54:22;;;;;;;;;;;7.90;88.70;;;;;;5019782;28;87530;-63
2021/04/17 11:56:48;;;;;;;;;;;7.90;88.70;;;;;;5019127;28;89241;-63
2021/04/17 11:59:13;;;;;;;;;;;7.90;88.80;;;;;;5019837;28;87171;-62
2021/04/17 12:01:39;;;;;;;;;;;7.90;88.80;;;;;;5018695;28;88122;-63
2021/04/17 12:04:04;;;;;;;;;;;7.90;88.70;;;;;;5018962;28;87287;-63
2021/04/17 12:06:30;;;;;;;;;;;7.90;88.70;;;;;;5017722;28;87255;-63
2021/04/17 12:08:56;;;;;;;;;;;7.90;88.70;;;;;;5017721;28;87319;-63
2021/04/17 12:11:22;;;;;;;;;;;7.90;88.70;;;;;;5017149;28;88287;-63
2021/04/17 12:13:48;;;;;;;;;;;7.90;88.80;;;;;;5021582;28;87257;-63
2021/04/17 12:16:13;;;;;;;;;;;7.90;88.80;;;;;;5019529;28;87943;-63
2021/04/17 12:18:39;;;;;;;;;;;7.90;88.90;;;;;;5020261;28;86462;-63
2021/04/17 12:21:05;;;;;;;;;;;7.90;88.90;;;;;;5019325;28;87163;-63
2021/04/17 12:23:30;;;;;;;;;;;7.90;88.90;;;;;;5018784;28;88676;-63
2021/04/17 12:25:56;;;;;;;;;;;7.90;88.90;;;;;;5019357;28;88108;-63
2021/04/17 12:28:22;;;;;;;;;;;7.90;88.90;;;;;;5018932;28;88594;-63
2021/04/17 12:30:48;;;;;;;;;;;7.90;88.90;;;;;;5019007;28;88142;-63
2021/04/17 12:33:13;;;;;;;;;;;7.90;89.00;;;;;;5022320;28;87199;-63
2021/04/17 12:35:40;;;;;;;;;;;7.90;89.00;;;;;;5017699;28;88592;-63
2021/04/17 12:38:06;;;;;;;;;;;7.90;89.00;;;;;;5017912;28;88117;-63
2021/04/17 12:40:32;;;;;;;;;;;7.90;89.00;;;;;;5019018;28;88770;-63
2021/04/17 12:42:57;;;;;;;;;;;7.90;89.10;;;;;;5015961;28;86446;-63
2021/04/17 12:45:23;;;;;;;;;;;7.90;89.10;;;;;;5015754;28;87188;-63
2021/04/17 12:47:49;;;;;;;;;;;7.90;89.20;;;;;;5016942;28;87805;-63
2021/04/17 12:50:14;;;;;;;;;;;7.90;89.10;;;;;;5016104;28;88585;-63
2021/04/17 12:52:41;;;;;;;;;;;7.90;89.10;;;;;;5018242;28;87170;-63
2021/04/17 12:55:07;;;;;;;;;;;7.90;89.30;;;;;;5021097;28;88794;-63
2021/04/17 12:57:32;;;;;;;;;;;7.90;89.10;;;;;;5020567;28;87250;-63
2021/04/17 12:59:58;;;;;;;;;;;7.90;89.10;;;;;;5019528;28;87759;-63
2021/04/17 13:02:23;;;;;;;;;;;7.90;89.20;;;;;;5017872;28;90062;-63
2021/04/17 13:04:49;;;;;;;;;;;7.90;89.30;;;;;;5019383;28;88417;-63
2021/04/17 13:07:14;;;;;;;;;;;7.90;89.20;;;;;;5020441;28;86840;-63
2021/04/17 13:09:40;;;;;;;;;;;7.90;89.20;;;;;;5019906;28;88700;-63
2021/04/17 13:12:06;;;;;;;;;;;7.90;89.30;;;;;;5021865;28;87103;-63
2021/04/17 13:14:31;;;;;;;;;;;7.90;89.20;;;;;;5020172;28;88161;-63
2021/04/17 13:16:57;;;;;;;;;;;8.00;89.30;;;;;;5022238;28;87792;-63
2021/04/17 13:19:24;;;;;;;;;;;7.90;89.30;;;;;;5020425;28;87148;-63
2021/04/17 13:21:50;;;;;;;;;;;7.90;89.40;;;;;;5018138;28;88909;-63
2021/04/17 13:24:15;;;;;;;;;;;7.90;89.20;;;;;;5019589;28;87146;-63
2021/04/17 13:26:41;;;;;;;;;;;7.90;89.40;;;;;;5019804;28;87143;-63
2021/04/17 13:29:06;;;;;;;;;;;7.90;89.30;;;;;;5019381;28;87148;-63
2021/04/17 13:31:32;;;;;;;;;;;7.90;89.40;;;;;;5021797;28;86412;-63
2021/04/17 13:33:57;;;;;;;;;;;7.90;89.30;;;;;;5020399;28;88147;-63
2021/04/17 13:36:23;;;;;;;;;;;7.90;89.30;;;;;;5020304;28;87164;-63
2021/04/17 13:38:48;;;;;;;;;;;7.90;89.40;;;;;;5022820;28;88128;-63
2021/04/17 13:41:14;;;;;;;;;;;7.90;89.50;;;;;;5019283;28;88356;-63
2021/04/17 13:43:40;;;;;;;;;;;7.90;89.30;;;;;;5022559;28;87137;-63
2021/04/17 13:46:05;;;;;;;;;;;7.90;89.30;;;;;;5021812;28;87626;-63
2021/04/17 13:48:31;;;;;;;;;;;8.00;89.30;;;;;;5021600;28;88345;-63
2021/04/17 13:50:56;;;;;;;;;;;7.90;89.40;;;;;;5018309;28;88077;-63
2021/04/17 13:53:23;;;;;;;;;;;7.90;89.30;;;;;;5018778;28;87716;-63
2021/04/17 13:55:49;;;;;;;;;;;8.00;89.40;;;;;;5021820;28;87956;-63
2021/04/17 13:58:14;;;;;;;;;;;7.90;89.40;;;;;;5021704;28;87158;-63
2021/04/17 14:00:40;;;;;;;;;;;7.90;89.40;;;;;;5023206;28;88785;-63
2021/04/17 14:03:06;;;;;;;;;;;8.00;89.50;;;;;;5020290;28;88978;-63
2021/04/17 14:05:31;;;;;;;;;;;7.90;89.50;;;;;;5017605;28;88447;-63
2021/04/17 14:07:57;;;;;;;;;;;7.90;89.60;;;;;;5017177;28;88160;-63
2021/04/17 14:10:23;;;;;;;;;;;7.90;89.50;;;;;;5019728;28;87112;-63
2021/04/17 14:12:49;;;;;;;;;;;7.90;89.40;;;;;;5019818;28;88909;-63
2021/04/17 14:15:14;;;;;;;;;;;8.00;89.50;;;;;;5018758;28;88194;-63
2021/04/17 14:17:41;;;;;;;;;;;7.90;89.50;;;;;;5018856;28;87210;-63
2021/04/17 14:20:07;;;;;;;;;;;8.00;89.60;;;;;;5020837;28;88516;-63
2021/04/17 14:22:33;;;;;;;;;;;7.90;89.50;;;;;;5018567;28;87144;-63
2021/04/17 14:24:58;;;;;;;;;;;8.00;89.60;;;;;;5020843;28;88060;-63
2021/04/17 14:27:24;;;;;;;;;;;8.00;89.60;;;;;;5020920;28;89283;-63
2021/04/17 14:29:50;;;;;;;;;;;7.90;89.50;;;;;;5021271;28;87801;-63